CYOO - Oshawa

Pirep is a free, collaborative database of all public and private airports located within the United States. All pilots are welcome to contribute, edit, and improve any airport they have local knowledge about, no registration required.
Are you familiar with this airport? Help out other pilots by adding your local knowledge.
Uploaded photos will be licensed under a CC BY-SA 4.0 license. Please only upload photos you have the rights to use.
Tags
Public
Undocu­mented
METAR / TAF
Webcam
Edit Tags
Food
Camping
Lodging
Car Rental
Bicycles
Swimming
Golfing
Fishing
Hot Springs
Museum
Flying Clubs
Airpark
Upcoming Events
No upcoming events. Is anything happening here soon?
*
*
*

Where exactly on/near the airport is this event taking place?

Is there a webpage with more information for this event?

Who should be contacted for more information?

What is this event all about?

Repeat every
Description
Transient Parking
Fuel Location
Landing & Tie-down Fees
Crew Car Availability
Flying Clubs
WiFi Access
Airport Statistics
Location: Oshawa, CN
Elevation: 459ft
Activation date: Mar 2005
Fuel: None
Runway 12/30: 4,000ft
Runway 05/23: 2,670ft
Access: Open to the public
Current Weather — VFR
  • Weather data is strictly informational and not for flight planning purposes.
  • METAR
    2024-05-29 12:00:00 EDT
    Ceiling Wind Temperature Dewpoint Weather Visbility
    Sky clear 300° @ 7kt 64°F 42°F N/A 9SM
    Raw: CYOO 291600Z AUTO 30007KT 290V010 9SM CLR 18/06 A3001 RMK SLP165 DENSITY ALT 800FT
  • TAF
    2024-05-29 10:00:00 EDT – 2024-05-29 12:00:00 EDT
    Ceiling Wind Weather Visbility
    10,000ft 360° @ 8kt N/A 6SM
    Clouds: Few @ 4,000ft, Broken @ 10,000ft
    Raw: TAF CYOO 291340Z 2914/3002 36008KT P6SM FEW040 BKN100 FM291600 34010KT P6SM FEW100 RMK FCST BASED ON AUTO OBS. NXT FCST BY 292000Z
  • TAF
    2024-05-29 12:00:00 EDT – 2024-05-29 22:00:00 EDT
    Ceiling Wind Weather Visbility
    Sky clear 340° @ 10kt N/A 6SM
    Clouds: Few @ 10,000ft
    Raw: TAF CYOO 291340Z 2914/3002 36008KT P6SM FEW040 BKN100 FM291600 34010KT P6SM FEW100 RMK FCST BASED ON AUTO OBS. NXT FCST BY 292000Z
Click/tap to add an annotation marker to the map
Direct links to live image URLs will be displayed inline on this page. URLs to separate webpages will be linked to.
URL:
Direct links to live image URLs will be displayed inline on this page. URLs to separate webpages will be linked to.
URL:
Comments
Leave a comment What was your experience like at this airport?